sensor_id;sensor_type;location;lat;lon;timestamp;P1;durP1;ratioP1;P2;durP2;ratioP2
53977;SDS011;39886;47.984;-1.586;2022-12-07T00:01:20;2.20;;;2.00;;
53977;SDS011;39886;47.984;-1.586;2022-12-07T00:03:48;2.67;;;2.30;;
53977;SDS011;39886;47.984;-1.586;2022-12-07T00:06:16;2.28;;;2.08;;
53977;SDS011;39886;47.984;-1.586;2022-12-07T00:08:43;2.70;;;1.90;;
53977;SDS011;39886;47.984;-1.586;2022-12-07T00:11:10;2.30;;;2.10;;
53977;SDS011;39886;47.984;-1.586;2022-12-07T00:13:40;2.20;;;2.00;;
53977;SDS011;39886;47.984;-1.586;2022-12-07T00:18:34;2.70;;;2.20;;
53977;SDS011;39886;47.984;-1.586;2022-12-07T00:21:04;3.47;;;2.30;;
53977;SDS011;39886;47.984;-1.586;2022-12-07T00:23:37;2.58;;;2.20;;
53977;SDS011;39886;47.984;-1.586;2022-12-07T00:26:07;2.35;;;2.15;;
53977;SDS011;39886;47.984;-1.586;2022-12-07T00:28:35;2.45;;;2.25;;
53977;SDS011;39886;47.984;-1.586;2022-12-07T00:31:03;2.20;;;2.00;;
53977;SDS011;39886;47.984;-1.586;2022-12-07T00:33:31;2.30;;;2.00;;
53977;SDS011;39886;47.984;-1.586;2022-12-07T00:35:58;2.40;;;2.20;;
53977;SDS011;39886;47.984;-1.586;2022-12-07T00:38:24;2.25;;;2.05;;
53977;SDS011;39886;47.984;-1.586;2022-12-07T00:41:00;2.20;;;2.00;;
53977;SDS011;39886;47.984;-1.586;2022-12-07T00:43:28;2.72;;;2.05;;
53977;SDS011;39886;47.984;-1.586;2022-12-07T00:45:54;2.45;;;2.22;;
53977;SDS011;39886;47.984;-1.586;2022-12-07T00:48:20;2.25;;;2.05;;
53977;SDS011;39886;47.984;-1.586;2022-12-07T00:50:47;2.40;;;2.20;;
53977;SDS011;39886;47.984;-1.586;2022-12-07T00:53:12;2.25;;;1.95;;
53977;SDS011;39886;47.984;-1.586;2022-12-07T00:55:39;2.30;;;2.10;;
53977;SDS011;39886;47.984;-1.586;2022-12-07T00:58:04;2.50;;;2.28;;
53977;SDS011;39886;47.984;-1.586;2022-12-07T01:00:31;2.35;;;2.10;;
53977;SDS011;39886;47.984;-1.586;2022-12-07T01:02:57;2.78;;;2.30;;
53977;SDS011;39886;47.984;-1.586;2022-12-07T01:05:23;2.50;;;2.10;;
53977;SDS011;39886;47.984;-1.586;2022-12-07T01:07:49;2.42;;;1.98;;
53977;SDS011;39886;47.984;-1.586;2022-12-07T01:10:14;2.72;;;2.30;;
53977;SDS011;39886;47.984;-1.586;2022-12-07T01:12:40;2.42;;;2.17;;
53977;SDS011;39886;47.984;-1.586;2022-12-07T01:15:06;2.50;;;2.30;;
53977;SDS011;39886;47.984;-1.586;2022-12-07T01:17:33;2.55;;;2.35;;
53977;SDS011;39886;47.984;-1.586;2022-12-07T01:19:59;2.33;;;2.05;;
53977;SDS011;39886;47.984;-1.586;2022-12-07T01:22:25;2.65;;;2.38;;
53977;SDS011;39886;47.984;-1.586;2022-12-07T01:24:51;2.75;;;2.33;;
53977;SDS011;39886;47.984;-1.586;2022-12-07T01:27:17;2.30;;;2.00;;
53977;SDS011;39886;47.984;-1.586;2022-12-07T01:29:42;2.13;;;1.95;;
53977;SDS011;39886;47.984;-1.586;2022-12-07T01:32:08;2.05;;;1.85;;
53977;SDS011;39886;47.984;-1.586;2022-12-07T01:34:34;2.50;;;2.30;;
53977;SDS011;39886;47.984;-1.586;2022-12-07T01:37:00;2.35;;;2.00;;
53977;SDS011;39886;47.984;-1.586;2022-12-07T01:39:25;2.30;;;2.10;;
53977;SDS011;39886;47.984;-1.586;2022-12-07T01:41:52;2.40;;;2.08;;
53977;SDS011;39886;47.984;-1.586;2022-12-07T01:44:24;2.30;;;2.10;;
53977;SDS011;39886;47.984;-1.586;2022-12-07T01:52:01;2.67;;;2.40;;
53977;SDS011;39886;47.984;-1.586;2022-12-07T01:54:28;2.50;;;2.20;;
53977;SDS011;39886;47.984;-1.586;2022-12-07T01:56:54;2.15;;;1.90;;
53977;SDS011;39886;47.984;-1.586;2022-12-07T01:59:22;2.47;;;2.00;;
53977;SDS011;39886;47.984;-1.586;2022-12-07T02:01:51;2.83;;;2.30;;
53977;SDS011;39886;47.984;-1.586;2022-12-07T02:04:17;2.35;;;1.95;;
53977;SDS011;39886;47.984;-1.586;2022-12-07T02:06:44;2.22;;;2.00;;
53977;SDS011;39886;47.984;-1.586;2022-12-07T02:09:11;2.50;;;2.00;;
53977;SDS011;39886;47.984;-1.586;2022-12-07T02:11:37;2.28;;;2.08;;
53977;SDS011;39886;47.984;-1.586;2022-12-07T02:14:04;2.42;;;2.05;;
53977;SDS011;39886;47.984;-1.586;2022-12-07T02:24:58;2.53;;;2.00;;
53977;SDS011;39886;47.984;-1.586;2022-12-07T02:30:44;2.13;;;1.92;;
53977;SDS011;39886;47.984;-1.586;2022-12-07T02:33:14;2.30;;;2.10;;
53977;SDS011;39886;47.984;-1.586;2022-12-07T02:38:38;2.38;;;2.13;;
53977;SDS011;39886;47.984;-1.586;2022-12-07T02:44:03;2.33;;;1.92;;
53977;SDS011;39886;47.984;-1.586;2022-12-07T02:46:38;2.65;;;2.40;;
53977;SDS011;39886;47.984;-1.586;2022-12-07T02:49:09;2.33;;;2.05;;
53977;SDS011;39886;47.984;-1.586;2022-12-07T02:51:39;2.25;;;2.05;;
53977;SDS011;39886;47.984;-1.586;2022-12-07T02:54:10;2.30;;;2.03;;
53977;SDS011;39886;47.984;-1.586;2022-12-07T03:07:51;2.28;;;2.08;;
53977;SDS011;39886;47.984;-1.586;2022-12-07T03:16:01;2.53;;;2.00;;
53977;SDS011;39886;47.984;-1.586;2022-12-07T03:18:29;2.50;;;1.95;;
53977;SDS011;39886;47.984;-1.586;2022-12-07T03:20:58;2.30;;;1.98;;
53977;SDS011;39886;47.984;-1.586;2022-12-07T03:23:29;2.47;;;1.92;;
53977;SDS011;39886;47.984;-1.586;2022-12-07T03:26:00;2.30;;;2.08;;
53977;SDS011;39886;47.984;-1.586;2022-12-07T03:28:31;2.78;;;1.90;;
53977;SDS011;39886;47.984;-1.586;2022-12-07T03:31:11;2.65;;;1.92;;
53977;SDS011;39886;47.984;-1.586;2022-12-07T03:33:44;1.73;;;1.63;;
53977;SDS011;39886;47.984;-1.586;2022-12-07T03:36:17;2.28;;;1.80;;
53977;SDS011;39886;47.984;-1.586;2022-12-07T03:38:50;1.92;;;1.73;;
53977;SDS011;39886;47.984;-1.586;2022-12-07T03:41:30;2.00;;;1.80;;
53977;SDS011;39886;47.984;-1.586;2022-12-07T03:43:58;2.33;;;2.13;;
53977;SDS011;39886;47.984;-1.586;2022-12-07T03:49:18;2.25;;;2.05;;
53977;SDS011;39886;47.984;-1.586;2022-12-07T03:52:01;2.45;;;2.13;;
53977;SDS011;39886;47.984;-1.586;2022-12-07T03:55:11;1.80;;;1.70;;
53977;SDS011;39886;47.984;-1.586;2022-12-07T03:57:36;2.15;;;1.95;;
53977;SDS011;39886;47.984;-1.586;2022-12-07T04:00:05;2.10;;;1.90;;
53977;SDS011;39886;47.984;-1.586;2022-12-07T04:02:32;1.85;;;1.70;;
53977;SDS011;39886;47.984;-1.586;2022-12-07T04:05:00;1.73;;;1.63;;
53977;SDS011;39886;47.984;-1.586;2022-12-07T04:07:26;2.08;;;1.88;;
53977;SDS011;39886;47.984;-1.586;2022-12-07T04:09:52;2.92;;;1.85;;
53977;SDS011;39886;47.984;-1.586;2022-12-07T04:12:19;2.10;;;1.90;;
53977;SDS011;39886;47.984;-1.586;2022-12-07T04:14:46;1.83;;;1.73;;
53977;SDS011;39886;47.984;-1.586;2022-12-07T04:17:12;1.67;;;1.58;;
53977;SDS011;39886;47.984;-1.586;2022-12-07T04:19:37;2.25;;;1.77;;
53977;SDS011;39886;47.984;-1.586;2022-12-07T04:22:03;2.10;;;1.90;;
53977;SDS011;39886;47.984;-1.586;2022-12-07T04:24:30;2.03;;;1.83;;
53977;SDS011;39886;47.984;-1.586;2022-12-07T04:26:56;2.00;;;1.80;;
53977;SDS011;39886;47.984;-1.586;2022-12-07T04:29:22;2.53;;;2.08;;
53977;SDS011;39886;47.984;-1.586;2022-12-07T04:31:48;1.98;;;1.77;;
53977;SDS011;39886;47.984;-1.586;2022-12-07T04:34:14;1.77;;;1.67;;
53977;SDS011;39886;47.984;-1.586;2022-12-07T04:36:41;2.30;;;2.00;;
53977;SDS011;39886;47.984;-1.586;2022-12-07T04:39:08;2.17;;;1.83;;
53977;SDS011;39886;47.984;-1.586;2022-12-07T04:41:44;1.98;;;1.77;;
53977;SDS011;39886;47.984;-1.586;2022-12-07T04:44:09;2.10;;;1.90;;
53977;SDS011;39886;47.984;-1.586;2022-12-07T04:46:39;3.03;;;2.08;;
53977;SDS011;39886;47.984;-1.586;2022-12-07T04:49:04;2.10;;;1.90;;
53977;SDS011;39886;47.984;-1.586;2022-12-07T04:51:30;2.20;;;2.00;;
53977;SDS011;39886;47.984;-1.586;2022-12-07T04:53:56;2.17;;;1.98;;
53977;SDS011;39886;47.984;-1.586;2022-12-07T04:56:22;1.83;;;1.73;;
53977;SDS011;39886;47.984;-1.586;2022-12-07T04:58:48;1.80;;;1.65;;
53977;SDS011;39886;47.984;-1.586;2022-12-07T05:01:16;1.98;;;1.80;;
53977;SDS011;39886;47.984;-1.586;2022-12-07T05:03:42;2.00;;;1.85;;
53977;SDS011;39886;47.984;-1.586;2022-12-07T05:06:08;2.22;;;2.00;;
53977;SDS011;39886;47.984;-1.586;2022-12-07T05:08:35;1.70;;;1.60;;
53977;SDS011;39886;47.984;-1.586;2022-12-07T05:11:01;1.70;;;1.60;;
53977;SDS011;39886;47.984;-1.586;2022-12-07T05:13:28;2.05;;;1.85;;
53977;SDS011;39886;47.984;-1.586;2022-12-07T05:15:54;2.00;;;1.83;;
53977;SDS011;39886;47.984;-1.586;2022-12-07T05:18:20;1.80;;;1.70;;
53977;SDS011;39886;47.984;-1.586;2022-12-07T05:20:45;2.17;;;1.98;;
53977;SDS011;39886;47.984;-1.586;2022-12-07T05:23:11;2.38;;;1.83;;
53977;SDS011;39886;47.984;-1.586;2022-12-07T05:25:37;1.95;;;1.73;;
53977;SDS011;39886;47.984;-1.586;2022-12-07T05:28:04;2.08;;;1.88;;
53977;SDS011;39886;47.984;-1.586;2022-12-07T05:30:30;2.22;;;1.85;;
53977;SDS011;39886;47.984;-1.586;2022-12-07T05:32:56;2.10;;;1.90;;
53977;SDS011;39886;47.984;-1.586;2022-12-07T05:35:22;2.15;;;1.92;;
53977;SDS011;39886;47.984;-1.586;2022-12-07T05:37:47;2.08;;;1.88;;
53977;SDS011;39886;47.984;-1.586;2022-12-07T05:40:13;1.95;;;1.75;;
53977;SDS011;39886;47.984;-1.586;2022-12-07T05:42:40;2.50;;;2.05;;
53977;SDS011;39886;47.984;-1.586;2022-12-07T05:45:06;1.90;;;1.80;;
53977;SDS011;39886;47.984;-1.586;2022-12-07T05:47:32;2.00;;;1.80;;
53977;SDS011;39886;47.984;-1.586;2022-12-07T05:49:58;1.70;;;1.60;;
53977;SDS011;39886;47.984;-1.586;2022-12-07T05:52:23;1.70;;;1.60;;
53977;SDS011;39886;47.984;-1.586;2022-12-07T05:54:49;2.15;;;1.90;;
53977;SDS011;39886;47.984;-1.586;2022-12-07T05:57:15;2.10;;;1.90;;
53977;SDS011;39886;47.984;-1.586;2022-12-07T05:59:41;1.95;;;1.65;;
53977;SDS011;39886;47.984;-1.586;2022-12-07T06:02:08;2.13;;;1.92;;
53977;SDS011;39886;47.984;-1.586;2022-12-07T06:04:36;2.00;;;1.85;;
53977;SDS011;39886;47.984;-1.586;2022-12-07T06:07:05;1.88;;;1.77;;
53977;SDS011;39886;47.984;-1.586;2022-12-07T06:09:31;2.00;;;1.80;;
53977;SDS011;39886;47.984;-1.586;2022-12-07T06:11:58;2.65;;;1.83;;
53977;SDS011;39886;47.984;-1.586;2022-12-07T06:14:42;2.90;;;1.85;;
53977;SDS011;39886;47.984;-1.586;2022-12-07T06:17:09;2.00;;;1.60;;
53977;SDS011;39886;47.984;-1.586;2022-12-07T06:19:35;2.85;;;1.80;;
53977;SDS011;39886;47.984;-1.586;2022-12-07T06:22:01;1.90;;;1.70;;
53977;SDS011;39886;47.984;-1.586;2022-12-07T06:24:29;1.98;;;1.88;;
53977;SDS011;39886;47.984;-1.586;2022-12-07T06:26:55;2.13;;;1.80;;
53977;SDS011;39886;47.984;-1.586;2022-12-07T06:29:21;2.25;;;1.92;;
53977;SDS011;39886;47.984;-1.586;2022-12-07T06:31:47;2.00;;;1.80;;
53977;SDS011;39886;47.984;-1.586;2022-12-07T06:34:16;2.08;;;1.88;;
53977;SDS011;39886;47.984;-1.586;2022-12-07T06:36:43;1.75;;;1.65;;
53977;SDS011;39886;47.984;-1.586;2022-12-07T06:39:10;2.00;;;1.80;;
53977;SDS011;39886;47.984;-1.586;2022-12-07T06:41:37;1.70;;;1.60;;
53977;SDS011;39886;47.984;-1.586;2022-12-07T06:44:03;1.85;;;1.70;;
53977;SDS011;39886;47.984;-1.586;2022-12-07T06:46:29;2.30;;;2.03;;
53977;SDS011;39886;47.984;-1.586;2022-12-07T06:48:55;2.42;;;1.90;;
53977;SDS011;39886;47.984;-1.586;2022-12-07T06:51:21;2.05;;;1.70;;
53977;SDS011;39886;47.984;-1.586;2022-12-07T06:53:47;2.17;;;1.98;;
53977;SDS011;39886;47.984;-1.586;2022-12-07T06:56:13;2.15;;;1.75;;
53977;SDS011;39886;47.984;-1.586;2022-12-07T06:58:39;1.80;;;1.60;;
53977;SDS011;39886;47.984;-1.586;2022-12-07T07:01:09;2.50;;;1.80;;
53977;SDS011;39886;47.984;-1.586;2022-12-07T07:03:39;2.13;;;1.88;;
53977;SDS011;39886;47.984;-1.586;2022-12-07T07:06:05;1.95;;;1.63;;
53977;SDS011;39886;47.984;-1.586;2022-12-07T07:08:32;2.25;;;1.92;;
53977;SDS011;39886;47.984;-1.586;2022-12-07T07:10:59;2.45;;;2.00;;
53977;SDS011;39886;47.984;-1.586;2022-12-07T07:13:25;2.42;;;1.92;;
53977;SDS011;39886;47.984;-1.586;2022-12-07T07:15:51;2.72;;;2.15;;
53977;SDS011;39886;47.984;-1.586;2022-12-07T07:18:17;2.35;;;1.90;;
53977;SDS011;39886;47.984;-1.586;2022-12-07T07:20:43;2.80;;;1.90;;
53977;SDS011;39886;47.984;-1.586;2022-12-07T07:23:09;2.63;;;2.20;;
53977;SDS011;39886;47.984;-1.586;2022-12-07T07:25:35;2.50;;;2.22;;
53977;SDS011;39886;47.984;-1.586;2022-12-07T07:28:01;2.83;;;2.10;;
53977;SDS011;39886;47.984;-1.586;2022-12-07T07:30:27;3.15;;;2.63;;
53977;SDS011;39886;47.984;-1.586;2022-12-07T07:32:57;3.58;;;2.60;;
53977;SDS011;39886;47.984;-1.586;2022-12-07T07:35:23;4.28;;;2.70;;
53977;SDS011;39886;47.984;-1.586;2022-12-07T07:37:49;3.00;;;2.28;;
53977;SDS011;39886;47.984;-1.586;2022-12-07T07:40:15;2.92;;;2.30;;
53977;SDS011;39886;47.984;-1.586;2022-12-07T07:42:41;2.95;;;2.40;;
53977;SDS011;39886;47.984;-1.586;2022-12-07T07:45:07;4.70;;;2.80;;
53977;SDS011;39886;47.984;-1.586;2022-12-07T07:47:33;3.53;;;2.55;;
53977;SDS011;39886;47.984;-1.586;2022-12-07T07:49:59;3.17;;;2.28;;
53977;SDS011;39886;47.984;-1.586;2022-12-07T07:52:25;4.15;;;2.70;;
53977;SDS011;39886;47.984;-1.586;2022-12-07T07:54:51;3.65;;;2.40;;
53977;SDS011;39886;47.984;-1.586;2022-12-07T07:57:17;4.03;;;2.53;;
53977;SDS011;39886;47.984;-1.586;2022-12-07T07:59:43;4.35;;;2.92;;
53977;SDS011;39886;47.984;-1.586;2022-12-07T08:02:12;4.13;;;2.80;;
53977;SDS011;39886;47.984;-1.586;2022-12-07T08:04:39;4.93;;;2.83;;
53977;SDS011;39886;47.984;-1.586;2022-12-07T08:07:05;3.90;;;2.67;;
53977;SDS011;39886;47.984;-1.586;2022-12-07T08:09:31;3.83;;;2.60;;
53977;SDS011;39886;47.984;-1.586;2022-12-07T08:11:57;4.28;;;2.63;;
53977;SDS011;39886;47.984;-1.586;2022-12-07T08:14:23;5.55;;;2.97;;
53977;SDS011;39886;47.984;-1.586;2022-12-07T08:16:49;3.03;;;2.50;;
53977;SDS011;39886;47.984;-1.586;2022-12-07T08:19:15;5.85;;;2.58;;
53977;SDS011;39886;47.984;-1.586;2022-12-07T08:21:41;4.72;;;2.67;;
53977;SDS011;39886;47.984;-1.586;2022-12-07T08:24:07;4.22;;;2.60;;
53977;SDS011;39886;47.984;-1.586;2022-12-07T08:26:33;3.45;;;2.63;;
53977;SDS011;39886;47.984;-1.586;2022-12-07T08:28:59;3.00;;;2.38;;
53977;SDS011;39886;47.984;-1.586;2022-12-07T08:31:24;10.02;;;2.70;;
53977;SDS011;39886;47.984;-1.586;2022-12-07T08:33:50;4.13;;;2.80;;
53977;SDS011;39886;47.984;-1.586;2022-12-07T08:36:16;3.28;;;2.55;;
53977;SDS011;39886;47.984;-1.586;2022-12-07T08:38:42;4.03;;;2.75;;
53977;SDS011;39886;47.984;-1.586;2022-12-07T08:41:08;5.22;;;2.88;;
53977;SDS011;39886;47.984;-1.586;2022-12-07T08:43:34;4.03;;;2.88;;
53977;SDS011;39886;47.984;-1.586;2022-12-07T08:48:36;6.00;;;2.90;;
53977;SDS011;39886;47.984;-1.586;2022-12-07T08:51:08;4.85;;;2.80;;
53977;SDS011;39886;47.984;-1.586;2022-12-07T08:53:34;5.22;;;2.78;;
53977;SDS011;39886;47.984;-1.586;2022-12-07T08:56:02;3.60;;;2.53;;
53977;SDS011;39886;47.984;-1.586;2022-12-07T08:58:28;4.70;;;2.65;;
53977;SDS011;39886;47.984;-1.586;2022-12-07T09:00:54;3.90;;;2.42;;
53977;SDS011;39886;47.984;-1.586;2022-12-07T09:03:20;5.05;;;2.90;;
53977;SDS011;39886;47.984;-1.586;2022-12-07T09:05:45;3.75;;;2.88;;
53977;SDS011;39886;47.984;-1.586;2022-12-07T09:08:11;4.65;;;2.45;;
53977;SDS011;39886;47.984;-1.586;2022-12-07T09:10:37;3.47;;;2.50;;
53977;SDS011;39886;47.984;-1.586;2022-12-07T09:13:03;4.03;;;2.40;;
53977;SDS011;39886;47.984;-1.586;2022-12-07T09:15:29;6.03;;;2.88;;
53977;SDS011;39886;47.984;-1.586;2022-12-07T09:17:56;4.90;;;2.50;;
53977;SDS011;39886;47.984;-1.586;2022-12-07T09:20:22;3.38;;;2.50;;
53977;SDS011;39886;47.984;-1.586;2022-12-07T09:22:48;4.72;;;2.60;;
53977;SDS011;39886;47.984;-1.586;2022-12-07T09:25:13;6.50;;;2.60;;
53977;SDS011;39886;47.984;-1.586;2022-12-07T09:27:40;4.85;;;2.05;;
53977;SDS011;39886;47.984;-1.586;2022-12-07T09:30:06;4.95;;;2.40;;
53977;SDS011;39886;47.984;-1.586;2022-12-07T09:32:32;4.13;;;2.20;;
53977;SDS011;39886;47.984;-1.586;2022-12-07T09:34:58;4.93;;;2.50;;
53977;SDS011;39886;47.984;-1.586;2022-12-07T09:37:24;5.15;;;2.80;;
53977;SDS011;39886;47.984;-1.586;2022-12-07T09:39:50;4.25;;;2.55;;
53977;SDS011;39886;47.984;-1.586;2022-12-07T09:42:37;4.35;;;2.50;;
53977;SDS011;39886;47.984;-1.586;2022-12-07T09:45:21;5.80;;;2.50;;
53977;SDS011;39886;47.984;-1.586;2022-12-07T09:47:48;3.20;;;2.50;;
53977;SDS011;39886;47.984;-1.586;2022-12-07T09:50:15;5.15;;;2.38;;
53977;SDS011;39886;47.984;-1.586;2022-12-07T09:52:45;3.35;;;2.17;;
53977;SDS011;39886;47.984;-1.586;2022-12-07T09:55:13;4.10;;;2.25;;
53977;SDS011;39886;47.984;-1.586;2022-12-07T09:57:44;4.73;;;2.43;;
53977;SDS011;39886;47.984;-1.586;2022-12-07T10:00:21;2.90;;;2.10;;
53977;SDS011;39886;47.984;-1.586;2022-12-07T10:03:01;3.97;;;2.40;;
53977;SDS011;39886;47.984;-1.586;2022-12-07T10:05:28;5.13;;;2.10;;
53977;SDS011;39886;47.984;-1.586;2022-12-07T10:07:57;3.55;;;2.40;;
53977;SDS011;39886;47.984;-1.586;2022-12-07T10:10:24;4.28;;;2.25;;
53977;SDS011;39886;47.984;-1.586;2022-12-07T10:15:40;4.15;;;2.05;;
53977;SDS011;39886;47.984;-1.586;2022-12-07T10:21:05;3.60;;;2.30;;
53977;SDS011;39886;47.984;-1.586;2022-12-07T10:23:40;6.53;;;2.25;;
53977;SDS011;39886;47.984;-1.586;2022-12-07T10:29:47;3.92;;;2.17;;
53977;SDS011;39886;47.984;-1.586;2022-12-07T10:32:06;4.30;;;2.25;;
53977;SDS011;39886;47.984;-1.586;2022-12-07T10:37:45;4.45;;;2.67;;
53977;SDS011;39886;47.984;-1.586;2022-12-07T10:40:29;3.42;;;2.20;;
53977;SDS011;39886;47.984;-1.586;2022-12-07T11:14:26;5.00;;;2.20;;
53977;SDS011;39886;47.984;-1.586;2022-12-07T11:17:17;5.07;;;2.40;;
53977;SDS011;39886;47.984;-1.586;2022-12-07T11:20:12;4.75;;;2.30;;
53977;SDS011;39886;47.984;-1.586;2022-12-07T11:26:04;3.08;;;2.15;;
53977;SDS011;39886;47.984;-1.586;2022-12-07T11:31:37;2.45;;;2.25;;
53977;SDS011;39886;47.984;-1.586;2022-12-07T11:34:18;5.05;;;2.55;;
53977;SDS011;39886;47.984;-1.586;2022-12-07T11:37:02;5.15;;;2.17;;
53977;SDS011;39886;47.984;-1.586;2022-12-07T11:39:39;5.47;;;2.25;;
53977;SDS011;39886;47.984;-1.586;2022-12-07T11:42:16;4.05;;;2.45;;
53977;SDS011;39886;47.984;-1.586;2022-12-07T11:44:56;5.85;;;2.15;;
53977;SDS011;39886;47.984;-1.586;2022-12-07T11:52:51;4.40;;;2.53;;
53977;SDS011;39886;47.984;-1.586;2022-12-07T11:55:39;7.50;;;2.75;;
53977;SDS011;39886;47.984;-1.586;2022-12-07T12:00:54;8.00;;;2.55;;
53977;SDS011;39886;47.984;-1.586;2022-12-07T12:03:33;3.28;;;2.30;;
53977;SDS011;39886;47.984;-1.586;2022-12-07T12:06:03;2.72;;;2.05;;
53977;SDS011;39886;47.984;-1.586;2022-12-07T12:08:32;3.53;;;2.30;;
53977;SDS011;39886;47.984;-1.586;2022-12-07T12:22:00;4.70;;;2.20;;
53977;SDS011;39886;47.984;-1.586;2022-12-07T12:24:35;3.95;;;2.25;;
53977;SDS011;39886;47.984;-1.586;2022-12-07T12:27:17;3.60;;;2.20;;
53977;SDS011;39886;47.984;-1.586;2022-12-07T12:29:55;4.97;;;2.40;;
53977;SDS011;39886;47.984;-1.586;2022-12-07T12:32:30;4.93;;;2.78;;
53977;SDS011;39886;47.984;-1.586;2022-12-07T12:37:50;4.05;;;2.50;;
53977;SDS011;39886;47.984;-1.586;2022-12-07T12:42:47;3.95;;;2.30;;
53977;SDS011;39886;47.984;-1.586;2022-12-07T12:45:21;3.38;;;2.10;;
53977;SDS011;39886;47.984;-1.586;2022-12-07T12:50:26;2.92;;;2.15;;
53977;SDS011;39886;47.984;-1.586;2022-12-07T12:53:12;5.47;;;2.78;;
53977;SDS011;39886;47.984;-1.586;2022-12-07T12:58:37;4.03;;;2.60;;
53977;SDS011;39886;47.984;-1.586;2022-12-07T13:04:00;3.88;;;2.65;;
53977;SDS011;39886;47.984;-1.586;2022-12-07T13:08:53;3.88;;;2.60;;
53977;SDS011;39886;47.984;-1.586;2022-12-07T13:11:35;4.82;;;2.53;;
53977;SDS011;39886;47.984;-1.586;2022-12-07T13:17:07;3.78;;;2.55;;
53977;SDS011;39886;47.984;-1.586;2022-12-07T13:19:58;5.95;;;2.78;;
53977;SDS011;39886;47.984;-1.586;2022-12-07T13:25:11;6.38;;;2.63;;
53977;SDS011;39886;47.984;-1.586;2022-12-07T13:27:47;5.90;;;2.90;;
53977;SDS011;39886;47.984;-1.586;2022-12-07T13:30:21;3.95;;;2.45;;
53977;SDS011;39886;47.984;-1.586;2022-12-07T13:32:57;5.82;;;3.00;;
53977;SDS011;39886;47.984;-1.586;2022-12-07T13:35:27;6.97;;;3.03;;
53977;SDS011;39886;47.984;-1.586;2022-12-07T13:37:58;5.47;;;3.10;;
53977;SDS011;39886;47.984;-1.586;2022-12-07T13:40:27;4.60;;;2.60;;
53977;SDS011;39886;47.984;-1.586;2022-12-07T13:43:00;5.82;;;2.92;;
53977;SDS011;39886;47.984;-1.586;2022-12-07T13:45:29;8.13;;;2.60;;
53977;SDS011;39886;47.984;-1.586;2022-12-07T13:50:52;6.25;;;2.67;;
53977;SDS011;39886;47.984;-1.586;2022-12-07T13:53:22;5.53;;;2.75;;
53977;SDS011;39886;47.984;-1.586;2022-12-07T13:55:48;4.75;;;2.65;;
53977;SDS011;39886;47.984;-1.586;2022-12-07T13:58:15;5.53;;;2.97;;
53977;SDS011;39886;47.984;-1.586;2022-12-07T14:00:42;3.30;;;2.55;;
53977;SDS011;39886;47.984;-1.586;2022-12-07T14:05:37;7.55;;;3.08;;
53977;SDS011;39886;47.984;-1.586;2022-12-07T14:08:04;5.47;;;3.00;;
53977;SDS011;39886;47.984;-1.586;2022-12-07T14:15:59;7.25;;;2.83;;
53977;SDS011;39886;47.984;-1.586;2022-12-07T14:23:36;5.55;;;2.70;;
53977;SDS011;39886;47.984;-1.586;2022-12-07T14:26:07;7.18;;;2.80;;
53977;SDS011;39886;47.984;-1.586;2022-12-07T14:28:41;4.53;;;2.35;;
53977;SDS011;39886;47.984;-1.586;2022-12-07T14:31:18;4.40;;;2.50;;
53977;SDS011;39886;47.984;-1.586;2022-12-07T14:33:54;4.80;;;2.50;;
53977;SDS011;39886;47.984;-1.586;2022-12-07T14:36:23;5.57;;;2.55;;
53977;SDS011;39886;47.984;-1.586;2022-12-07T14:38:50;4.28;;;2.55;;
53977;SDS011;39886;47.984;-1.586;2022-12-07T14:41:19;3.30;;;2.50;;
53977;SDS011;39886;47.984;-1.586;2022-12-07T14:44:10;7.80;;;3.15;;
53977;SDS011;39886;47.984;-1.586;2022-12-07T14:46:37;4.88;;;2.60;;
53977;SDS011;39886;47.984;-1.586;2022-12-07T14:49:03;4.00;;;2.47;;
53977;SDS011;39886;47.984;-1.586;2022-12-07T14:51:28;4.22;;;2.50;;
53977;SDS011;39886;47.984;-1.586;2022-12-07T14:53:54;4.05;;;2.60;;
53977;SDS011;39886;47.984;-1.586;2022-12-07T14:56:20;6.25;;;2.80;;
53977;SDS011;39886;47.984;-1.586;2022-12-07T14:58:46;3.35;;;2.92;;
53977;SDS011;39886;47.984;-1.586;2022-12-07T15:01:13;5.60;;;2.63;;
53977;SDS011;39886;47.984;-1.586;2022-12-07T15:03:39;8.68;;;2.92;;
53977;SDS011;39886;47.984;-1.586;2022-12-07T15:06:05;4.00;;;2.70;;
53977;SDS011;39886;47.984;-1.586;2022-12-07T15:08:32;3.85;;;2.83;;
53977;SDS011;39886;47.984;-1.586;2022-12-07T15:10:58;4.75;;;2.42;;
53977;SDS011;39886;47.984;-1.586;2022-12-07T15:13:24;4.25;;;2.70;;
53977;SDS011;39886;47.984;-1.586;2022-12-07T15:16:09;6.45;;;2.72;;
53977;SDS011;39886;47.984;-1.586;2022-12-07T15:18:38;5.68;;;2.75;;
53977;SDS011;39886;47.984;-1.586;2022-12-07T15:21:03;4.07;;;2.75;;
53977;SDS011;39886;47.984;-1.586;2022-12-07T15:23:29;4.97;;;2.70;;
53977;SDS011;39886;47.984;-1.586;2022-12-07T15:25:56;4.32;;;2.70;;
53977;SDS011;39886;47.984;-1.586;2022-12-07T15:28:21;6.38;;;2.80;;
53977;SDS011;39886;47.984;-1.586;2022-12-07T15:30:47;5.80;;;2.63;;
53977;SDS011;39886;47.984;-1.586;2022-12-07T15:33:13;4.45;;;2.67;;
53977;SDS011;39886;47.984;-1.586;2022-12-07T15:35:42;10.50;;;3.05;;
53977;SDS011;39886;47.984;-1.586;2022-12-07T15:38:09;4.57;;;2.80;;
53977;SDS011;39886;47.984;-1.586;2022-12-07T15:40:36;4.72;;;2.72;;
53977;SDS011;39886;47.984;-1.586;2022-12-07T15:43:02;5.13;;;2.97;;
53977;SDS011;39886;47.984;-1.586;2022-12-07T15:45:28;5.07;;;2.97;;
53977;SDS011;39886;47.984;-1.586;2022-12-07T15:47:54;3.22;;;2.65;;
53977;SDS011;39886;47.984;-1.586;2022-12-07T15:50:20;6.95;;;2.78;;
53977;SDS011;39886;47.984;-1.586;2022-12-07T15:52:46;4.70;;;2.70;;
53977;SDS011;39886;47.984;-1.586;2022-12-07T15:55:12;4.63;;;2.72;;
53977;SDS011;39886;47.984;-1.586;2022-12-07T15:57:38;4.45;;;2.90;;
53977;SDS011;39886;47.984;-1.586;2022-12-07T16:00:05;3.97;;;2.70;;
53977;SDS011;39886;47.984;-1.586;2022-12-07T16:02:32;4.45;;;2.90;;
53977;SDS011;39886;47.984;-1.586;2022-12-07T16:04:58;5.32;;;3.10;;
53977;SDS011;39886;47.984;-1.586;2022-12-07T16:07:23;4.10;;;2.90;;
53977;SDS011;39886;47.984;-1.586;2022-12-07T16:09:49;5.75;;;2.83;;
53977;SDS011;39886;47.984;-1.586;2022-12-07T16:12:15;4.50;;;2.72;;
53977;SDS011;39886;47.984;-1.586;2022-12-07T16:14:41;5.20;;;2.95;;
53977;SDS011;39886;47.984;-1.586;2022-12-07T16:17:08;3.92;;;2.80;;
53977;SDS011;39886;47.984;-1.586;2022-12-07T16:19:34;6.05;;;3.15;;
53977;SDS011;39886;47.984;-1.586;2022-12-07T16:22:01;6.50;;;3.03;;
53977;SDS011;39886;47.984;-1.586;2022-12-07T16:24:28;4.22;;;2.67;;
53977;SDS011;39886;47.984;-1.586;2022-12-07T16:26:54;6.32;;;2.75;;
53977;SDS011;39886;47.984;-1.586;2022-12-07T16:29:20;7.25;;;2.80;;
53977;SDS011;39886;47.984;-1.586;2022-12-07T16:31:47;4.22;;;2.97;;
53977;SDS011;39886;47.984;-1.586;2022-12-07T16:34:13;5.80;;;2.92;;
53977;SDS011;39886;47.984;-1.586;2022-12-07T16:36:39;3.30;;;2.83;;
53977;SDS011;39886;47.984;-1.586;2022-12-07T16:39:05;7.47;;;3.17;;
53977;SDS011;39886;47.984;-1.586;2022-12-07T16:41:31;6.00;;;3.10;;
53977;SDS011;39886;47.984;-1.586;2022-12-07T16:44:00;4.00;;;2.85;;
53977;SDS011;39886;47.984;-1.586;2022-12-07T16:46:28;4.43;;;3.20;;
53977;SDS011;39886;47.984;-1.586;2022-12-07T16:48:54;3.60;;;2.85;;
53977;SDS011;39886;47.984;-1.586;2022-12-07T16:51:20;4.95;;;2.70;;
53977;SDS011;39886;47.984;-1.586;2022-12-07T16:53:47;7.03;;;3.05;;
53977;SDS011;39886;47.984;-1.586;2022-12-07T16:56:14;4.30;;;2.90;;
53977;SDS011;39886;47.984;-1.586;2022-12-07T16:58:41;6.82;;;2.90;;
53977;SDS011;39886;47.984;-1.586;2022-12-07T17:01:08;5.68;;;3.08;;
53977;SDS011;39886;47.984;-1.586;2022-12-07T17:03:38;4.05;;;3.10;;
53977;SDS011;39886;47.984;-1.586;2022-12-07T17:06:10;4.07;;;2.60;;
53977;SDS011;39886;47.984;-1.586;2022-12-07T17:08:40;5.30;;;3.30;;
53977;SDS011;39886;47.984;-1.586;2022-12-07T17:11:10;8.52;;;3.20;;
53977;SDS011;39886;47.984;-1.586;2022-12-07T17:13:37;4.30;;;3.10;;
53977;SDS011;39886;47.984;-1.586;2022-12-07T17:16:21;4.85;;;3.13;;